sensor_id;sensor_type;location;lat;lon;timestamp;P1;durP1;ratioP1;P2;durP2;ratioP2
3309;SDS011;1667;53.238;10.394;2023-06-04T00:00:23;4.30;;;2.47;;
3309;SDS011;1667;53.238;10.394;2023-06-04T00:05:22;3.03;;;2.70;;
3309;SDS011;1667;53.238;10.394;2023-06-04T00:10:21;2.90;;;2.40;;
3309;SDS011;1667;53.238;10.394;2023-06-04T00:15:21;5.27;;;2.47;;
3309;SDS011;1667;53.238;10.394;2023-06-04T00:20:20;1.90;;;1.80;;
3309;SDS011;1667;53.238;10.394;2023-06-04T00:25:19;3.60;;;1.90;;
3309;SDS011;1667;53.238;10.394;2023-06-04T00:30:18;2.07;;;1.97;;
3309;SDS011;1667;53.238;10.394;2023-06-04T00:35:18;1.63;;;1.40;;
3309;SDS011;1667;53.238;10.394;2023-06-04T00:40:17;2.40;;;1.50;;
3309;SDS011;1667;53.238;10.394;2023-06-04T00:45:16;1.73;;;1.50;;
3309;SDS011;1667;53.238;10.394;2023-06-04T00:50:19;4.60;;;2.10;;
3309;SDS011;1667;53.238;10.394;2023-06-04T00:55:18;1.67;;;1.57;;
3309;SDS011;1667;53.238;10.394;2023-06-04T01:00:18;3.07;;;1.77;;
3309;SDS011;1667;53.238;10.394;2023-06-04T01:05:20;1.83;;;1.67;;
3309;SDS011;1667;53.238;10.394;2023-06-04T01:10:28;3.23;;;1.57;;
3309;SDS011;1667;53.238;10.394;2023-06-04T01:15:26;1.77;;;1.60;;
3309;SDS011;1667;53.238;10.394;2023-06-04T01:20:29;1.57;;;1.40;;
3309;SDS011;1667;53.238;10.394;2023-06-04T01:25:33;1.80;;;1.70;;
3309;SDS011;1667;53.238;10.394;2023-06-04T01:30:36;1.50;;;1.40;;
3309;SDS011;1667;53.238;10.394;2023-06-04T01:35:41;4.07;;;1.60;;
3309;SDS011;1667;53.238;10.394;2023-06-04T01:40:40;1.70;;;1.40;;
3309;SDS011;1667;53.238;10.394;2023-06-04T01:45:38;1.93;;;1.83;;
3309;SDS011;1667;53.238;10.394;2023-06-04T01:50:37;1.80;;;1.70;;
3309;SDS011;1667;53.238;10.394;2023-06-04T01:55:37;1.40;;;1.30;;
3309;SDS011;1667;53.238;10.394;2023-06-04T02:00:36;1.77;;;1.40;;
3309;SDS011;1667;53.238;10.394;2023-06-04T02:05:34;2.33;;;2.23;;
3309;SDS011;1667;53.238;10.394;2023-06-04T02:10:33;1.53;;;1.27;;
3309;SDS011;1667;53.238;10.394;2023-06-04T02:15:33;2.43;;;1.80;;
3309;SDS011;1667;53.238;10.394;2023-06-04T02:20:31;2.20;;;1.70;;
3309;SDS011;1667;53.238;10.394;2023-06-04T02:25:32;2.40;;;1.30;;
3309;SDS011;1667;53.238;10.394;2023-06-04T02:30:30;2.13;;;1.93;;
3309;SDS011;1667;53.238;10.394;2023-06-04T02:35:30;7.27;;;1.73;;
3309;SDS011;1667;53.238;10.394;2023-06-04T02:40:29;2.23;;;1.80;;
3309;SDS011;1667;53.238;10.394;2023-06-04T02:45:27;3.03;;;2.30;;
3309;SDS011;1667;53.238;10.394;2023-06-04T02:50:26;1.93;;;1.80;;
3309;SDS011;1667;53.238;10.394;2023-06-04T02:55:26;2.40;;;1.80;;
3309;SDS011;1667;53.238;10.394;2023-06-04T03:00:24;1.77;;;1.67;;
3309;SDS011;1667;53.238;10.394;2023-06-04T03:05:23;2.30;;;1.80;;
3309;SDS011;1667;53.238;10.394;2023-06-04T03:10:23;2.13;;;1.93;;
3309;SDS011;1667;53.238;10.394;2023-06-04T03:15:24;3.10;;;2.80;;
3309;SDS011;1667;53.238;10.394;2023-06-04T03:20:23;3.47;;;2.33;;
3309;SDS011;1667;53.238;10.394;2023-06-04T03:25:21;2.80;;;2.30;;
3309;SDS011;1667;53.238;10.394;2023-06-04T03:30:20;2.10;;;1.80;;
3309;SDS011;1667;53.238;10.394;2023-06-04T03:35:28;2.03;;;1.90;;
3309;SDS011;1667;53.238;10.394;2023-06-04T03:40:27;2.47;;;2.27;;
3309;SDS011;1667;53.238;10.394;2023-06-04T03:45:26;2.23;;;2.00;;
3309;SDS011;1667;53.238;10.394;2023-06-04T03:50:25;2.73;;;2.13;;
3309;SDS011;1667;53.238;10.394;2023-06-04T03:55:26;1.90;;;1.80;;
3309;SDS011;1667;53.238;10.394;2023-06-04T04:00:26;4.73;;;2.30;;
3309;SDS011;1667;53.238;10.394;2023-06-04T04:05:31;4.60;;;2.00;;
3309;SDS011;1667;53.238;10.394;2023-06-04T04:10:29;3.57;;;2.00;;
3309;SDS011;1667;53.238;10.394;2023-06-04T04:15:28;2.37;;;2.17;;
3309;SDS011;1667;53.238;10.394;2023-06-04T04:20:30;1.93;;;1.83;;
3309;SDS011;1667;53.238;10.394;2023-06-04T04:25:34;1.80;;;1.70;;
3309;SDS011;1667;53.238;10.394;2023-06-04T04:30:35;4.80;;;1.90;;
3309;SDS011;1667;53.238;10.394;2023-06-04T04:35:37;1.60;;;1.50;;
3309;SDS011;1667;53.238;10.394;2023-06-04T04:40:37;3.00;;;1.47;;
3309;SDS011;1667;53.238;10.394;2023-06-04T04:45:37;1.87;;;1.77;;
3309;SDS011;1667;53.238;10.394;2023-06-04T04:50:40;2.37;;;1.60;;
3309;SDS011;1667;53.238;10.394;2023-06-04T04:55:39;2.70;;;1.90;;
3309;SDS011;1667;53.238;10.394;2023-06-04T05:00:37;2.37;;;1.90;;
3309;SDS011;1667;53.238;10.394;2023-06-04T05:05:37;2.30;;;2.10;;
3309;SDS011;1667;53.238;10.394;2023-06-04T05:10:37;3.10;;;2.80;;
3309;SDS011;1667;53.238;10.394;2023-06-04T05:15:37;1.93;;;1.80;;
3309;SDS011;1667;53.238;10.394;2023-06-04T05:20:38;1.60;;;1.50;;
3309;SDS011;1667;53.238;10.394;2023-06-04T05:25:41;1.63;;;1.53;;
3309;SDS011;1667;53.238;10.394;2023-06-04T05:30:40;2.40;;;1.80;;
3309;SDS011;1667;53.238;10.394;2023-06-04T05:35:41;2.33;;;1.70;;
3309;SDS011;1667;53.238;10.394;2023-06-04T05:40:41;2.40;;;1.67;;
3309;SDS011;1667;53.238;10.394;2023-06-04T05:45:40;1.73;;;1.63;;
3309;SDS011;1667;53.238;10.394;2023-06-04T05:50:39;2.50;;;1.60;;
3309;SDS011;1667;53.238;10.394;2023-06-04T05:55:37;2.07;;;1.33;;
3309;SDS011;1667;53.238;10.394;2023-06-04T06:00:38;2.70;;;1.63;;
3309;SDS011;1667;53.238;10.394;2023-06-04T06:05:37;1.33;;;1.23;;
3309;SDS011;1667;53.238;10.394;2023-06-04T06:10:36;2.80;;;1.57;;
3309;SDS011;1667;53.238;10.394;2023-06-04T06:15:35;9.03;;;1.60;;
3309;SDS011;1667;53.238;10.394;2023-06-04T06:20:35;2.13;;;1.03;;
3309;SDS011;1667;53.238;10.394;2023-06-04T06:25:33;2.00;;;1.63;;
3309;SDS011;1667;53.238;10.394;2023-06-04T06:30:37;1.33;;;1.13;;
3309;SDS011;1667;53.238;10.394;2023-06-04T06:35:37;1.33;;;1.30;;
3309;SDS011;1667;53.238;10.394;2023-06-04T06:40:36;1.83;;;1.43;;
3309;SDS011;1667;53.238;10.394;2023-06-04T06:45:34;1.23;;;1.00;;
3309;SDS011;1667;53.238;10.394;2023-06-04T06:50:33;1.23;;;1.00;;
3309;SDS011;1667;53.238;10.394;2023-06-04T06:55:33;1.80;;;1.20;;
3309;SDS011;1667;53.238;10.394;2023-06-04T07:00:32;2.57;;;1.30;;
3309;SDS011;1667;53.238;10.394;2023-06-04T07:05:30;1.43;;;1.23;;
3309;SDS011;1667;53.238;10.394;2023-06-04T07:10:29;1.30;;;1.20;;
3309;SDS011;1667;53.238;10.394;2023-06-04T07:15:28;1.30;;;1.20;;
3309;SDS011;1667;53.238;10.394;2023-06-04T07:20:26;1.30;;;1.20;;
3309;SDS011;1667;53.238;10.394;2023-06-04T07:25:25;1.27;;;1.13;;
3309;SDS011;1667;53.238;10.394;2023-06-04T07:30:23;1.53;;;1.20;;
3309;SDS011;1667;53.238;10.394;2023-06-04T07:35:23;1.73;;;1.10;;
3309;SDS011;1667;53.238;10.394;2023-06-04T07:40:22;1.03;;;0.93;;
3309;SDS011;1667;53.238;10.394;2023-06-04T07:45:21;3.73;;;1.30;;
3309;SDS011;1667;53.238;10.394;2023-06-04T07:50:20;1.20;;;1.07;;
3309;SDS011;1667;53.238;10.394;2023-06-04T07:55:20;2.10;;;1.07;;
3309;SDS011;1667;53.238;10.394;2023-06-04T08:00:18;1.17;;;1.07;;
3309;SDS011;1667;53.238;10.394;2023-06-04T08:05:17;1.20;;;1.10;;
3309;SDS011;1667;53.238;10.394;2023-06-04T08:10:16;4.03;;;1.00;;
3309;SDS011;1667;53.238;10.394;2023-06-04T08:15:16;1.43;;;1.10;;
3309;SDS011;1667;53.238;10.394;2023-06-04T08:20:14;0.80;;;0.80;;
3309;SDS011;1667;53.238;10.394;2023-06-04T08:25:13;1.67;;;1.17;;
3309;SDS011;1667;53.238;10.394;2023-06-04T08:30:11;1.17;;;1.13;;
3309;SDS011;1667;53.238;10.394;2023-06-04T08:35:11;1.50;;;1.40;;
3309;SDS011;1667;53.238;10.394;2023-06-04T08:40:10;1.20;;;1.10;;
3309;SDS011;1667;53.238;10.394;2023-06-04T08:45:10;4.80;;;1.23;;
3309;SDS011;1667;53.238;10.394;2023-06-04T08:50:10;2.10;;;1.00;;
3309;SDS011;1667;53.238;10.394;2023-06-04T08:55:10;2.10;;;1.00;;
3309;SDS011;1667;53.238;10.394;2023-06-04T09:00:11;1.50;;;1.03;;
3309;SDS011;1667;53.238;10.394;2023-06-04T09:05:16;0.97;;;0.97;;
3309;SDS011;1667;53.238;10.394;2023-06-04T09:10:18;2.10;;;1.00;;
3309;SDS011;1667;53.238;10.394;2023-06-04T09:15:21;1.90;;;1.10;;
3309;SDS011;1667;53.238;10.394;2023-06-04T09:20:22;1.10;;;0.97;;
3309;SDS011;1667;53.238;10.394;2023-06-04T09:25:21;1.60;;;1.13;;
3309;SDS011;1667;53.238;10.394;2023-06-04T09:30:22;5.90;;;0.90;;
3309;SDS011;1667;53.238;10.394;2023-06-04T09:35:23;1.43;;;1.20;;
3309;SDS011;1667;53.238;10.394;2023-06-04T09:40:21;1.10;;;1.00;;
3309;SDS011;1667;53.238;10.394;2023-06-04T09:45:27;1.20;;;1.10;;
3309;SDS011;1667;53.238;10.394;2023-06-04T09:50:29;1.30;;;1.20;;
3309;SDS011;1667;53.238;10.394;2023-06-04T09:55:30;1.20;;;1.00;;
3309;SDS011;1667;53.238;10.394;2023-06-04T10:00:28;1.43;;;1.10;;
3309;SDS011;1667;53.238;10.394;2023-06-04T10:05:29;1.27;;;1.17;;
3309;SDS011;1667;53.238;10.394;2023-06-04T10:10:30;3.53;;;1.33;;
3309;SDS011;1667;53.238;10.394;2023-06-04T10:15:33;1.90;;;0.97;;
3309;SDS011;1667;53.238;10.394;2023-06-04T10:20:35;1.30;;;1.20;;
3309;SDS011;1667;53.238;10.394;2023-06-04T10:25:34;1.43;;;1.20;;
3309;SDS011;1667;53.238;10.394;2023-06-04T10:30:33;1.43;;;1.00;;
3309;SDS011;1667;53.238;10.394;2023-06-04T10:35:32;2.23;;;1.37;;
3309;SDS011;1667;53.238;10.394;2023-06-04T10:40:32;1.40;;;1.30;;
3309;SDS011;1667;53.238;10.394;2023-06-04T10:45:31;1.27;;;1.10;;
3309;SDS011;1667;53.238;10.394;2023-06-04T10:50:31;1.27;;;1.17;;
3309;SDS011;1667;53.238;10.394;2023-06-04T10:55:30;1.03;;;1.00;;
3309;SDS011;1667;53.238;10.394;2023-06-04T11:00:36;2.03;;;1.10;;
3309;SDS011;1667;53.238;10.394;2023-06-04T11:05:35;0.90;;;0.90;;
3309;SDS011;1667;53.238;10.394;2023-06-04T11:10:34;9.40;;;1.67;;
3309;SDS011;1667;53.238;10.394;2023-06-04T11:15:38;1.43;;;1.20;;
3309;SDS011;1667;53.238;10.394;2023-06-04T11:20:38;1.13;;;0.90;;
3309;SDS011;1667;53.238;10.394;2023-06-04T11:25:37;1.53;;;1.00;;
3309;SDS011;1667;53.238;10.394;2023-06-04T11:30:35;1.33;;;1.23;;
3309;SDS011;1667;53.238;10.394;2023-06-04T11:35:40;1.10;;;1.00;;
3309;SDS011;1667;53.238;10.394;2023-06-04T11:40:40;1.40;;;1.00;;
3309;SDS011;1667;53.238;10.394;2023-06-04T11:45:41;0.90;;;0.90;;
3309;SDS011;1667;53.238;10.394;2023-06-04T11:50:42;1.13;;;0.93;;
3309;SDS011;1667;53.238;10.394;2023-06-04T11:55:41;1.00;;;0.90;;
3309;SDS011;1667;53.238;10.394;2023-06-04T12:00:40;2.70;;;1.10;;
3309;SDS011;1667;53.238;10.394;2023-06-04T12:05:39;2.93;;;1.23;;
3309;SDS011;1667;53.238;10.394;2023-06-04T12:10:39;1.10;;;1.00;;
3309;SDS011;1667;53.238;10.394;2023-06-04T12:15:38;1.47;;;1.20;;
3309;SDS011;1667;53.238;10.394;2023-06-04T12:20:37;1.93;;;1.13;;
3309;SDS011;1667;53.238;10.394;2023-06-04T12:25:39;0.97;;;0.87;;
3309;SDS011;1667;53.238;10.394;2023-06-04T12:30:38;1.20;;;1.10;;
3309;SDS011;1667;53.238;10.394;2023-06-04T12:35:37;2.43;;;1.50;;
3309;SDS011;1667;53.238;10.394;2023-06-04T12:40:36;2.93;;;1.50;;
3309;SDS011;1667;53.238;10.394;2023-06-04T12:45:36;1.43;;;1.23;;
3309;SDS011;1667;53.238;10.394;2023-06-04T12:50:34;1.73;;;1.23;;
3309;SDS011;1667;53.238;10.394;2023-06-04T12:55:33;1.30;;;0.90;;
3309;SDS011;1667;53.238;10.394;2023-06-04T13:00:31;3.40;;;1.13;;
3309;SDS011;1667;53.238;10.394;2023-06-04T13:05:31;1.10;;;0.97;;
3309;SDS011;1667;53.238;10.394;2023-06-04T13:10:29;1.90;;;1.30;;
3309;SDS011;1667;53.238;10.394;2023-06-04T13:15:28;2.40;;;1.27;;
3309;SDS011;1667;53.238;10.394;2023-06-04T13:20:26;3.00;;;1.33;;
3309;SDS011;1667;53.238;10.394;2023-06-04T13:25:27;1.43;;;1.20;;
3309;SDS011;1667;53.238;10.394;2023-06-04T13:30:27;1.60;;;1.27;;
3309;SDS011;1667;53.238;10.394;2023-06-04T13:35:27;1.53;;;1.43;;
3309;SDS011;1667;53.238;10.394;2023-06-04T13:40:26;1.60;;;1.40;;
3309;SDS011;1667;53.238;10.394;2023-06-04T13:45:25;0.90;;;0.90;;
3309;SDS011;1667;53.238;10.394;2023-06-04T13:50:24;2.43;;;1.50;;
3309;SDS011;1667;53.238;10.394;2023-06-04T13:55:23;1.57;;;1.47;;
3309;SDS011;1667;53.238;10.394;2023-06-04T14:00:23;1.20;;;1.10;;
3309;SDS011;1667;53.238;10.394;2023-06-04T14:05:22;1.43;;;1.27;;
3309;SDS011;1667;53.238;10.394;2023-06-04T14:10:23;2.70;;;1.20;;
3309;SDS011;1667;53.238;10.394;2023-06-04T14:15:24;3.40;;;1.13;;
3309;SDS011;1667;53.238;10.394;2023-06-04T14:20:22;1.53;;;1.43;;
3309;SDS011;1667;53.238;10.394;2023-06-04T14:25:20;1.33;;;1.23;;
3309;SDS011;1667;53.238;10.394;2023-06-04T14:30:19;2.03;;;1.20;;
3309;SDS011;1667;53.238;10.394;2023-06-04T14:35:19;2.57;;;2.00;;
3309;SDS011;1667;53.238;10.394;2023-06-04T14:40:18;1.20;;;1.10;;
3309;SDS011;1667;53.238;10.394;2023-06-04T14:45:16;1.87;;;1.60;;
3309;SDS011;1667;53.238;10.394;2023-06-04T14:50:15;3.23;;;1.80;;
3309;SDS011;1667;53.238;10.394;2023-06-04T14:55:15;1.70;;;1.30;;
3309;SDS011;1667;53.238;10.394;2023-06-04T15:00:14;2.20;;;1.33;;
3309;SDS011;1667;53.238;10.394;2023-06-04T15:05:13;2.03;;;1.83;;
3309;SDS011;1667;53.238;10.394;2023-06-04T15:10:12;2.93;;;1.27;;
3309;SDS011;1667;53.238;10.394;2023-06-04T15:15:11;1.60;;;1.50;;
3309;SDS011;1667;53.238;10.394;2023-06-04T15:20:10;2.10;;;1.37;;
3309;SDS011;1667;53.238;10.394;2023-06-04T15:25:08;4.33;;;1.53;;
3309;SDS011;1667;53.238;10.394;2023-06-04T15:30:07;2.33;;;1.70;;
3309;SDS011;1667;53.238;10.394;2023-06-04T15:35:08;2.00;;;1.60;;
3309;SDS011;1667;53.238;10.394;2023-06-04T15:40:07;2.40;;;1.87;;
3309;SDS011;1667;53.238;10.394;2023-06-04T15:45:08;2.13;;;1.53;;
3309;SDS011;1667;53.238;10.394;2023-06-04T15:50:08;1.70;;;1.40;;
3309;SDS011;1667;53.238;10.394;2023-06-04T15:55:07;2.70;;;1.40;;
3309;SDS011;1667;53.238;10.394;2023-06-04T16:00:07;5.37;;;1.70;;
3309;SDS011;1667;53.238;10.394;2023-06-04T16:05:06;1.40;;;1.30;;
3309;SDS011;1667;53.238;10.394;2023-06-04T16:10:07;2.00;;;1.83;;
3309;SDS011;1667;53.238;10.394;2023-06-04T16:15:06;1.83;;;1.27;;
3309;SDS011;1667;53.238;10.394;2023-06-04T16:20:06;1.50;;;1.40;;
3309;SDS011;1667;53.238;10.394;2023-06-04T16:25:07;3.20;;;1.70;;
3309;SDS011;1667;53.238;10.394;2023-06-04T16:30:06;1.93;;;1.37;;
3309;SDS011;1667;53.238;10.394;2023-06-04T16:35:06;3.07;;;1.70;;
3309;SDS011;1667;53.238;10.394;2023-06-04T16:40:07;2.70;;;2.03;;
3309;SDS011;1667;53.238;10.394;2023-06-04T16:45:07;2.63;;;1.80;;
3309;SDS011;1667;53.238;10.394;2023-06-04T16:50:07;1.50;;;1.40;;
3309;SDS011;1667;53.238;10.394;2023-06-04T16:55:07;2.10;;;1.90;;
3309;SDS011;1667;53.238;10.394;2023-06-04T17:00:06;2.33;;;1.67;;
3309;SDS011;1667;53.238;10.394;2023-06-04T17:05:22;2.03;;;1.70;;
3309;SDS011;1667;53.238;10.394;2023-06-04T17:10:24;2.50;;;1.77;;
3309;SDS011;1667;53.238;10.394;2023-06-04T17:15:27;1.83;;;1.40;;
3309;SDS011;1667;53.238;10.394;2023-06-04T17:20:26;1.77;;;1.30;;
3309;SDS011;1667;53.238;10.394;2023-06-04T17:25:26;2.67;;;1.50;;
3309;SDS011;1667;53.238;10.394;2023-06-04T17:30:25;3.40;;;1.60;;
3309;SDS011;1667;53.238;10.394;2023-06-04T17:35:23;3.53;;;1.73;;
3309;SDS011;1667;53.238;10.394;2023-06-04T17:40:22;1.90;;;1.47;;
3309;SDS011;1667;53.238;10.394;2023-06-04T17:45:24;2.83;;;1.90;;
3309;SDS011;1667;53.238;10.394;2023-06-04T17:50:23;1.63;;;1.53;;
3309;SDS011;1667;53.238;10.394;2023-06-04T17:55:21;2.37;;;1.60;;
3309;SDS011;1667;53.238;10.394;2023-06-04T18:00:20;2.70;;;1.90;;
3309;SDS011;1667;53.238;10.394;2023-06-04T18:05:20;2.77;;;1.77;;
3309;SDS011;1667;53.238;10.394;2023-06-04T18:10:19;2.07;;;1.80;;
3309;SDS011;1667;53.238;10.394;2023-06-04T18:15:17;1.87;;;1.77;;
3309;SDS011;1667;53.238;10.394;2023-06-04T18:20:16;4.90;;;2.00;;
3309;SDS011;1667;53.238;10.394;2023-06-04T18:25:16;1.70;;;1.60;;
3309;SDS011;1667;53.238;10.394;2023-06-04T18:30:15;1.63;;;1.50;;
3309;SDS011;1667;53.238;10.394;2023-06-04T18:35:13;3.03;;;1.67;;
3309;SDS011;1667;53.238;10.394;2023-06-04T18:40:12;1.67;;;1.53;;
3309;SDS011;1667;53.238;10.394;2023-06-04T18:45:14;2.43;;;1.60;;
3309;SDS011;1667;53.238;10.394;2023-06-04T18:50:13;2.20;;;1.60;;
3309;SDS011;1667;53.238;10.394;2023-06-04T18:55:12;2.17;;;1.70;;
3309;SDS011;1667;53.238;10.394;2023-06-04T19:00:13;2.10;;;1.83;;
3309;SDS011;1667;53.238;10.394;2023-06-04T19:05:14;3.83;;;2.37;;
3309;SDS011;1667;53.238;10.394;2023-06-04T19:10:14;2.50;;;1.93;;
3309;SDS011;1667;53.238;10.394;2023-06-04T19:15:12;2.60;;;1.70;;
3309;SDS011;1667;53.238;10.394;2023-06-04T19:20:15;3.27;;;1.80;;
3309;SDS011;1667;53.238;10.394;2023-06-04T19:25:14;4.07;;;1.53;;
3309;SDS011;1667;53.238;10.394;2023-06-04T19:30:13;8.43;;;2.10;;
3309;SDS011;1667;53.238;10.394;2023-06-04T19:35:11;2.30;;;1.80;;
3309;SDS011;1667;53.238;10.394;2023-06-04T19:40:14;2.70;;;2.03;;
3309;SDS011;1667;53.238;10.394;2023-06-04T19:45:13;2.00;;;1.73;;
3309;SDS011;1667;53.238;10.394;2023-06-04T19:50:12;2.77;;;1.90;;
3309;SDS011;1667;53.238;10.394;2023-06-04T19:55:12;1.60;;;1.50;;
3309;SDS011;1667;53.238;10.394;2023-06-04T20:00:11;5.83;;;2.40;;
3309;SDS011;1667;53.238;10.394;2023-06-04T20:05:10;7.97;;;2.10;;
3309;SDS011;1667;53.238;10.394;2023-06-04T20:10:09;3.93;;;2.10;;
3309;SDS011;1667;53.238;10.394;2023-06-04T20:15:09;3.17;;;2.03;;
3309;SDS011;1667;53.238;10.394;2023-06-04T20:20:09;6.10;;;2.00;;
3309;SDS011;1667;53.238;10.394;2023-06-04T20:25:07;3.80;;;2.20;;
3309;SDS011;1667;53.238;10.394;2023-06-04T20:30:08;3.20;;;2.33;;
3309;SDS011;1667;53.238;10.394;2023-06-04T20:35:08;5.00;;;2.10;;
3309;SDS011;1667;53.238;10.394;2023-06-04T20:40:06;3.60;;;1.97;;
3309;SDS011;1667;53.238;10.394;2023-06-04T20:45:06;5.60;;;2.20;;
3309;SDS011;1667;53.238;10.394;2023-06-04T20:50:07;3.47;;;2.63;;
3309;SDS011;1667;53.238;10.394;2023-06-04T20:55:06;4.87;;;2.87;;
3309;SDS011;1667;53.238;10.394;2023-06-04T21:00:06;4.17;;;2.70;;
3309;SDS011;1667;53.238;10.394;2023-06-04T21:05:07;6.47;;;2.60;;
3309;SDS011;1667;53.238;10.394;2023-06-04T21:10:05;9.03;;;2.83;;
3309;SDS011;1667;53.238;10.394;2023-06-04T21:15:05;6.53;;;2.90;;
3309;SDS011;1667;53.238;10.394;2023-06-04T21:20:06;5.53;;;2.93;;
3309;SDS011;1667;53.238;10.394;2023-06-04T21:25:05;4.83;;;2.60;;
3309;SDS011;1667;53.238;10.394;2023-06-04T21:30:05;7.13;;;3.23;;
3309;SDS011;1667;53.238;10.394;2023-06-04T21:35:06;5.70;;;2.50;;
3309;SDS011;1667;53.238;10.394;2023-06-04T21:46:28;6.87;;;2.90;;
3309;SDS011;1667;53.238;10.394;2023-06-04T21:51:28;3.33;;;2.73;;
3309;SDS011;1667;53.238;10.394;2023-06-04T21:56:27;5.57;;;2.77;;
3309;SDS011;1667;53.238;10.394;2023-06-04T22:01:25;3.57;;;3.20;;
3309;SDS011;1667;53.238;10.394;2023-06-04T22:06:24;3.47;;;2.83;;
3309;SDS011;1667;53.238;10.394;2023-06-04T22:11:23;3.93;;;2.90;;
3309;SDS011;1667;53.238;10.394;2023-06-04T22:16:22;9.13;;;3.23;;
3309;SDS011;1667;53.238;10.394;2023-06-04T22:21:20;3.63;;;3.00;;
3309;SDS011;1667;53.238;10.394;2023-06-04T22:26:19;5.50;;;3.17;;
3309;SDS011;1667;53.238;10.394;2023-06-04T22:31:34;7.63;;;2.90;;
3309;SDS011;1667;53.238;10.394;2023-06-04T22:36:34;5.10;;;3.40;;
3309;SDS011;1667;53.238;10.394;2023-06-04T22:41:32;6.63;;;3.53;;
3309;SDS011;1667;53.238;10.394;2023-06-04T22:46:31;5.37;;;3.10;;
3309;SDS011;1667;53.238;10.394;2023-06-04T22:51:31;3.93;;;3.10;;
3309;SDS011;1667;53.238;10.394;2023-06-04T22:56:29;5.30;;;3.50;;
3309;SDS011;1667;53.238;10.394;2023-06-04T23:01:28;7.83;;;3.60;;
3309;SDS011;1667;53.238;10.394;2023-06-04T23:06:27;10.40;;;3.90;;
3309;SDS011;1667;53.238;10.394;2023-06-04T23:11:26;8.23;;;3.27;;
3309;SDS011;1667;53.238;10.394;2023-06-04T23:16:25;6.93;;;3.20;;
3309;SDS011;1667;53.238;10.394;2023-06-04T23:21:24;4.03;;;2.90;;
3309;SDS011;1667;53.238;10.394;2023-06-04T23:26:23;3.37;;;2.70;;
3309;SDS011;1667;53.238;10.394;2023-06-04T23:31:23;5.90;;;3.20;;
3309;SDS011;1667;53.238;10.394;2023-06-04T23:36:22;7.63;;;3.10;;
3309;SDS011;1667;53.238;10.394;2023-06-04T23:41:20;7.00;;;2.77;;
3309;SDS011;1667;53.238;10.394;2023-06-04T23:46:19;9.20;;;3.17;;
3309;SDS011;1667;53.238;10.394;2023-06-04T23:51:20;3.37;;;3.17;;
3309;SDS011;1667;53.238;10.394;2023-06-04T23:56:19;3.73;;;2.97;;
